CGCPK CEF4-CEC4
Flight info
| Callsign | CGCPK |
|---|---|
| Flight time | N/A |
| Altitude | 18000 |
| Route | AGMAK DCT TAMVU DCT VOKIM DCT OBNAP |
| Aircraft | B58T/L-SDFGRY/C |
Departure
| Time | 2026-05-04 16:51 |
|---|---|
| Airport | Airdrie Aerodrome (CEF4) |
Arrival
| Time | N/A |
|---|---|
| Airport | Jasper-Hinton Airport (CEC4) |
| Time | Latitude | Longitude | Altitude | Speed | Heading |
|---|---|---|---|---|---|
| 2026-05-04 16:39 | 51.26806 | -113.93819 | 3647 ft | 0 kts | 165° |
| 2026-05-04 16:44 | 51.26803 | -113.93838 | 3648 ft | 3 kts | 305° |
| 2026-05-04 16:45 | 51.26802 | -113.93958 | 3647 ft | 9 kts | 254° |
| 2026-05-04 16:46 | 51.26588 | -113.93745 | 3647 ft | 24 kts | 142° |
| 2026-05-04 16:46 | 51.26371 | -113.93438 | 3644 ft | 19 kts | 139° |
| 2026-05-04 16:47 | 51.26197 | -113.93185 | 3643 ft | 15 kts | 137° |
| 2026-05-04 16:47 | 51.26075 | -113.93007 | 3644 ft | 10 kts | 136° |
| 2026-05-04 16:48 | 51.25895 | -113.92738 | 3644 ft | 8 kts | 208° |
| 2026-05-04 16:48 | 51.25906 | -113.92760 | 3644 ft | 0 kts | 317° |
| 2026-05-04 16:50 | 51.26068 | -113.92995 | 3645 ft | 71 kts | 317° |
| 2026-05-04 16:50 | 51.27058 | -113.94693 | 4046 ft | 121 kts | 317° |
| 2026-05-04 16:51 | 51.26953 | -113.97412 | 4697 ft | 149 kts | 244° |
| 2026-05-04 16:51 | 51.26465 | -113.98916 | 4797 ft | 161 kts | 257° |
| 2026-05-04 16:51 | 51.25863 | -114.02560 | 4715 ft | 175 kts | 265° |
| 2026-05-04 16:52 | 51.25452 | -114.06414 | 4696 ft | 176 kts | 270° |
| 2026-05-04 16:52 | 51.25324 | -114.08365 | 4691 ft | 176 kts | 271° |
| 2026-05-04 16:53 | 51.25070 | -114.12297 | 4714 ft | 182 kts | 270° |
| 2026-05-04 16:53 | 51.24618 | -114.18278 | 5040 ft | 173 kts | 270° |
| 2026-05-04 16:54 | 51.24476 | -114.20163 | 5284 ft | 168 kts | 271° |
| 2026-05-04 16:55 | 51.23971 | -114.27437 | 6152 ft | 163 kts | 270° |
| 2026-05-04 16:55 | 51.23673 | -114.31004 | 6670 ft | 160 kts | 271° |
| 2026-05-04 16:56 | 51.23445 | -114.34531 | 7171 ft | 159 kts | 272° |
| 2026-05-04 16:56 | 51.23038 | -114.39829 | 7925 ft | 161 kts | 272° |
| 2026-05-04 16:57 | 51.22910 | -114.41583 | 8184 ft | 161 kts | 272° |
| 2026-05-04 16:57 | 51.22649 | -114.45125 | 8700 ft | 161 kts | 274° |
| 2026-05-04 16:58 | 51.22257 | -114.50433 | 9489 ft | 160 kts | 274° |
| 2026-05-04 16:58 | 51.22128 | -114.52204 | 9742 ft | 161 kts | 273° |
| 2026-05-04 16:59 | 51.21846 | -114.55743 | 10260 ft | 161 kts | 274° |
| 2026-05-04 17:00 | 51.23011 | -114.61798 | 11264 ft | 144 kts | 311° |
| 2026-05-04 17:00 | 51.24619 | -114.65868 | 12026 ft | 146 kts | 306° |
| 2026-05-04 17:01 | 51.25608 | -114.68692 | 12549 ft | 145 kts | 306° |
| 2026-05-04 17:01 | 51.26616 | -114.71473 | 13088 ft | 145 kts | 307° |
| 2026-05-04 17:02 | 51.27628 | -114.74259 | 13626 ft | 146 kts | 306° |
| 2026-05-04 17:02 | 51.28708 | -114.76951 | 14139 ft | 140 kts | 328° |
| 2026-05-04 17:03 | 51.29571 | -114.77669 | 14381 ft | 140 kts | 332° |
| 2026-05-04 17:03 | 51.30413 | -114.78453 | 14620 ft | 140 kts | 329° |
| 2026-05-04 17:03 | 51.32044 | -114.80168 | 15125 ft | 141 kts | 327° |
| 2026-05-04 17:04 | 51.33652 | -114.81993 | 15622 ft | 142 kts | 327° |
| 2026-05-04 17:04 | 51.35285 | -114.83780 | 16118 ft | 142 kts | 327° |
| 2026-05-04 17:05 | 51.36890 | -114.85550 | 16612 ft | 140 kts | 328° |
| 2026-05-04 17:05 | 51.38492 | -114.87292 | 17129 ft | 138 kts | 328° |
| 2026-05-04 17:06 | 51.40074 | -114.89035 | 17665 ft | 138 kts | 328° |
| 2026-05-04 17:06 | 51.40862 | -114.89908 | 17907 ft | 138 kts | 328° |
| 2026-05-04 17:07 | 51.42514 | -114.91732 | 18089 ft | 152 kts | 328° |
| 2026-05-04 17:07 | 51.43102 | -114.92378 | 18107 ft | 157 kts | 328° |
| 2026-05-04 17:07 | 51.44343 | -114.93745 | 18114 ft | 165 kts | 327° |
| 2026-05-04 17:07 | 51.45288 | -114.94795 | 18257 ft | 162 kts | 327° |
| 2026-05-04 17:08 | 51.46198 | -114.95807 | 18521 ft | 156 kts | 328° |
| 2026-05-04 17:08 | 51.47950 | -114.97739 | 18997 ft | 149 kts | 328° |
| 2026-05-04 17:08 | 51.48787 | -114.98661 | 19230 ft | 147 kts | 328° |
| 2026-05-04 17:09 | 51.49622 | -114.99585 | 19468 ft | 145 kts | 328° |
| 2026-05-04 17:09 | 51.50443 | -115.00497 | 19706 ft | 143 kts | 328° |
| 2026-05-04 17:09 | 51.51256 | -115.01401 | 19912 ft | 142 kts | 328° |
| 2026-05-04 17:10 | 51.52946 | -115.03252 | 20081 ft | 154 kts | 328° |
| 2026-05-04 17:10 | 51.55745 | -115.06394 | 20112 ft | 171 kts | 328° |
| 2026-05-04 17:11 | 51.56742 | -115.07486 | 20107 ft | 174 kts | 328° |
| 2026-05-04 17:11 | 51.57747 | -115.08594 | 20106 ft | 176 kts | 328° |
| 2026-05-04 17:11 | 51.59742 | -115.10826 | 20106 ft | 174 kts | 328° |
| 2026-05-04 17:12 | 51.60732 | -115.11936 | 20117 ft | 174 kts | 328° |
| 2026-05-04 17:12 | 51.62707 | -115.14128 | 20112 ft | 174 kts | 328° |
| 2026-05-04 17:13 | 51.65685 | -115.17450 | 20106 ft | 173 kts | 328° |
| 2026-05-04 17:14 | 51.68627 | -115.20743 | 20117 ft | 171 kts | 328° |
| 2026-05-04 17:14 | 51.69605 | -115.21837 | 20103 ft | 171 kts | 328° |
| 2026-05-04 17:14 | 51.71572 | -115.24033 | 20109 ft | 172 kts | 328° |
| 2026-05-04 17:15 | 51.72544 | -115.25126 | 20105 ft | 172 kts | 328° |
| 2026-05-04 17:15 | 51.74501 | -115.27329 | 20097 ft | 169 kts | 328° |
| 2026-05-04 17:16 | 51.76403 | -115.29454 | 20097 ft | 163 kts | 328° |
| 2026-05-04 17:16 | 51.79141 | -115.32627 | 20104 ft | 160 kts | 327° |
| 2026-05-04 17:17 | 51.80041 | -115.33673 | 20107 ft | 159 kts | 328° |
| 2026-05-04 17:17 | 51.82743 | -115.36786 | 20100 ft | 159 kts | 328° |
| 2026-05-04 17:18 | 51.83641 | -115.37830 | 20103 ft | 159 kts | 327° |
| 2026-05-04 17:18 | 51.85433 | -115.39915 | 20103 ft | 158 kts | 327° |
| 2026-05-04 17:19 | 51.87211 | -115.41982 | 20108 ft | 156 kts | 327° |
| 2026-05-04 17:19 | 51.88971 | -115.44023 | 20116 ft | 156 kts | 327° |
| 2026-05-04 17:20 | 51.90744 | -115.46084 | 20114 ft | 158 kts | 327° |
| 2026-05-04 17:20 | 51.92530 | -115.48171 | 20109 ft | 158 kts | 327° |
| 2026-05-04 17:20 | 51.93422 | -115.49210 | 20108 ft | 157 kts | 328° |
| 2026-05-04 17:21 | 51.95191 | -115.51272 | 20129 ft | 156 kts | 328° |
| 2026-05-04 17:21 | 51.96945 | -115.53318 | 20116 ft | 155 kts | 328° |
| 2026-05-04 17:22 | 51.97818 | -115.54340 | 20127 ft | 155 kts | 327° |
| 2026-05-04 17:22 | 51.98697 | -115.55368 | 20134 ft | 156 kts | 328° |
| 2026-05-04 17:23 | 52.01346 | -115.58468 | 20113 ft | 156 kts | 327° |
| 2026-05-04 17:23 | 52.02220 | -115.59493 | 20116 ft | 154 kts | 328° |
| 2026-05-04 17:23 | 52.03973 | -115.61545 | 20144 ft | 156 kts | 327° |
| 2026-05-04 17:24 | 52.04861 | -115.62588 | 20139 ft | 157 kts | 327° |
| 2026-05-04 17:24 | 52.07454 | -115.65636 | 20121 ft | 155 kts | 327° |
| 2026-05-04 17:25 | 52.08344 | -115.66684 | 20137 ft | 155 kts | 327° |